Time;durP1;ratioP1;P1;durP2;ratioP2;P2;SDS_P1;SDS_P2;PMS_P1;PMS_P2;Temp;Humidity;BMP_temperature;BMP_pressure;BME280_temperature;BME280_humidity;BME280_pressure;Samples;Min_cycle;Max_cycle;Signal;HPM_P1;HPM_P2
2020/12/30 00:00:35;;;;;;;7.93;5.67;;;6.70;99.90;;;;;;4903619;29;20489;-80
2020/12/30 00:03:21;;;;;;;6.30;4.90;;;6.50;99.90;;;;;;4916934;29;20474;-78
2020/12/30 00:05:50;;;;;;;5.40;4.90;;;6.60;99.90;;;;;;4933413;29;20462;-78
2020/12/30 00:08:36;;;;;;;7.80;5.50;;;6.70;99.90;;;;;;4928738;29;20466;-79
2020/12/30 00:12:01;;;;;;;5.23;4.73;;;6.80;99.90;;;;;;4912891;29;21218;-81
2020/12/30 00:14:41;;;;;;;7.53;5.80;;;6.90;99.90;;;;;;4931835;29;20505;-77
2020/12/30 00:18:03;;;;;;;6.20;5.60;;;7.20;99.90;;;;;;4930866;29;20467;-78
2020/12/30 00:21:23;;;;;;;;;;;;;;;;;;;;;
2020/12/30 00:23:56;;;;;;;7.43;5.43;;;7.20;99.90;;;;;;4893099;29;20456;-78
2020/12/30 00:26:40;;;;;;;7.37;5.40;;;7.20;99.90;;;;;;4912565;29;20461;-77
2020/12/30 00:29:12;;;;;;;6.50;5.80;;;7.00;99.90;;;;;;4925301;29;21080;-78
2020/12/30 00:31:42;;;;;;;5.93;5.33;;;6.80;99.90;;;;;;4963583;28;20482;-81
2020/12/30 00:37:27;;;;;;;5.90;5.20;;;6.80;99.90;;;;;;4978063;28;20551;-80
2020/12/30 00:40:21;;;;;;;7.10;5.27;;;6.60;99.90;;;;;;4982541;28;20580;-79
2020/12/30 00:43:13;;;;;;;7.47;5.47;;;6.70;99.90;;;;;;4962580;28;20474;-78
2020/12/30 00:45:42;;;;;;;6.13;5.20;;;6.60;99.90;;;;;;5003118;28;20447;-80
2020/12/30 00:48:35;;;;;;;10.60;5.73;;;7.00;99.90;;;;;;4985526;28;20502;-80
2020/12/30 00:51:30;;;;;;;;;;;;;;;;;;;;;
2020/12/30 00:54:28;;;;;;;10.57;5.70;;;6.70;99.90;;;;;;5000886;28;20478;-78
2020/12/30 00:57:29;;;;;;;5.13;4.63;;;7.20;99.90;;;;;;4978666;28;20550;-80
2020/12/30 01:08:28;;;;;;;7.17;5.20;;;7.30;99.90;;;;;;4938914;29;20458;-82
2020/12/30 01:11:21;;;;;;;10.47;5.60;;;7.40;99.90;;;;;;4924189;29;20492;-79
2020/12/30 01:14:02;;;;;;;7.10;5.87;;;7.30;99.90;;;;;;4938080;29;20495;-79
2020/12/30 01:16:35;;;;;;;8.60;7.00;;;7.00;99.90;;;;;;4917390;29;20958;-80
2020/12/30 01:19:33;;;;;;;7.97;5.80;;;7.10;99.90;;;;;;4933060;29;20499;-79
2020/12/30 01:22:20;;;;;;;6.73;5.80;;;7.00;99.90;;;;;;4940672;29;20457;-81
2020/12/30 01:24:47;;;;;;;7.37;5.80;;;6.90;99.90;;;;;;4941695;29;20473;-79
2020/12/30 01:27:26;;;;;;;7.07;6.40;;;6.90;99.90;;;;;;4939338;29;20454;-78
2020/12/30 01:30:47;;;;;;;72.67;48.57;;;6.90;99.90;;;;;;4943162;29;20457;-77
2020/12/30 01:33:36;;;;;;;47.53;36.90;;;6.70;99.90;;;;;;4923376;29;20551;-81
2020/12/30 01:36:36;;;;;;;25.77;20.57;;;6.70;99.90;;;;;;4995934;28;20434;-81
2020/12/30 01:39:40;;;;;;;17.13;13.93;;;6.90;99.90;;;;;;4999843;28;20469;-79
2020/12/30 01:45:41;;;;;;;7.70;6.73;;;7.00;99.90;;;;;;4999226;28;20458;-80
2020/12/30 01:48:36;;;;;;;7.33;6.17;;;6.80;99.90;;;;;;5005946;28;20529;-78
2020/12/30 01:51:44;;;;;;;23.87;13.43;;;6.90;99.90;;;;;;4985897;28;20454;-81
2020/12/30 01:54:27;;;;;;;14.97;10.93;;;6.90;99.90;;;;;;5000094;28;20461;-79
2020/12/30 01:57:46;;;;;;;16.17;11.77;;;6.90;99.90;;;;;;4973639;28;20440;-79
2020/12/30 02:00:51;;;;;;;7.90;6.37;;;6.90;99.90;;;;;;4986243;28;20835;-80
2020/12/30 02:04:33;;;;;;;9.33;7.33;;;6.90;99.90;;;;;;4988556;28;20453;-79
2020/12/30 02:07:35;;;;;;;;;;;;;;;;;;;;;
2020/12/30 02:10:26;;;;;;;7.03;6.00;;;7.00;99.90;;;;;;5004378;28;20483;-78
2020/12/30 02:16:29;;;;;;;9.90;7.10;;;7.00;99.90;;;;;;5001220;28;20508;-80
2020/12/30 02:19:33;;;;;;;6.97;5.83;;;7.00;99.90;;;;;;4988222;28;20461;-80
2020/12/30 02:22:17;;;;;;;7.70;6.90;;;6.80;99.90;;;;;;4989837;28;20497;-81
2020/12/30 02:25:16;;;;;;;6.93;6.13;;;6.50;99.90;;;;;;4986021;28;20442;-80
2020/12/30 02:28:04;;;;;;;11.97;8.00;;;6.70;99.90;;;;;;5004553;28;20455;-81
2020/12/30 02:30:47;;;;;;;8.13;6.93;;;6.80;99.90;;;;;;4990892;28;20477;-78
2020/12/30 02:33:17;;;;;;;8.93;8.03;;;6.90;99.90;;;;;;5003608;28;20482;-80
2020/12/30 02:36:09;;;;;;;8.37;6.43;;;6.90;99.90;;;;;;5006916;28;20451;-79
2020/12/30 02:38:36;;;;;;;10.13;7.67;;;6.90;99.90;;;;;;5001023;28;20485;-81
2020/12/30 02:42:02;;;;;;;8.47;6.97;;;7.00;99.90;;;;;;4988766;28;20454;-82
2020/12/30 02:44:51;;;;;;;9.07;6.80;;;7.00;99.90;;;;;;4994259;28;20459;-81
2020/12/30 02:47:20;;;;;;;9.93;7.20;;;7.00;99.90;;;;;;4985867;28;20509;-80
2020/12/30 02:50:13;;;;;;;9.30;7.10;;;7.00;99.90;;;;;;4981699;28;20451;-80
2020/12/30 02:53:04;;;;;;;;;;;;;;;;;;;;;
2020/12/30 02:55:42;;;;;;;9.53;6.67;;;6.90;99.90;;;;;;5001892;28;20446;-78
2020/12/30 02:58:28;;;;;;;8.33;6.90;;;6.90;99.90;;;;;;4991630;28;20466;-78
2020/12/30 03:01:29;;;;;;;7.20;6.07;;;6.80;99.90;;;;;;5005458;28;20483;-81
2020/12/30 03:04:08;;;;;;;8.93;6.50;;;6.60;99.90;;;;;;4986802;28;20445;-80
2020/12/30 03:06:35;;;;;;;7.80;6.27;;;6.70;99.90;;;;;;4987020;28;20451;-80
2020/12/30 03:09:10;;;;;;;7.80;6.40;;;6.80;99.90;;;;;;4999856;28;20537;-81
2020/12/30 03:12:02;;;;;;;7.87;6.57;;;6.80;99.90;;;;;;4996830;28;20814;-82
2020/12/30 03:14:43;;;;;;;8.07;6.33;;;6.90;99.90;;;;;;4984287;28;20833;-81
2020/12/30 03:18:04;;;;;;;8.20;6.73;;;6.90;99.90;;;;;;4967559;28;20435;-80
2020/12/30 03:20:43;;;;;;;8.70;6.13;;;6.90;99.90;;;;;;4997319;28;20513;-80
2020/12/30 03:23:49;;;;;;;8.20;6.57;;;6.80;99.90;;;;;;4985377;28;20482;-82
2020/12/30 03:26:47;;;;;;;7.70;5.80;;;6.90;99.90;;;;;;4996762;28;20505;-81
2020/12/30 03:29:32;;;;;;;8.77;6.50;;;6.90;99.90;;;;;;4994527;28;20472;-79
2020/12/30 03:32:31;;;;;;;6.03;5.27;;;7.00;99.90;;;;;;4987275;28;20490;-81
2020/12/30 03:35:24;;;;;;;8.57;6.07;;;6.90;99.90;;;;;;4983641;28;20470;-81
2020/12/30 03:38:04;;;;;;;6.90;6.20;;;6.90;99.90;;;;;;4995242;28;20461;-81
2020/12/30 03:40:38;;;;;;;6.13;5.20;;;6.90;99.90;;;;;;4987136;28;20573;-80
2020/12/30 03:43:18;;;;;;;5.40;4.90;;;6.80;99.90;;;;;;4987207;28;20480;-83
2020/12/30 03:45:46;;;;;;;6.03;5.43;;;6.90;99.90;;;;;;4980609;28;20435;-81
2020/12/30 03:48:22;;;;;;;5.80;5.17;;;6.70;99.90;;;;;;4989005;28;20854;-79
2020/12/30 03:50:51;;;;;;;6.70;5.33;;;6.70;99.90;;;;;;5003928;28;20880;-80
2020/12/30 03:53:32;;;;;;;7.50;5.60;;;6.80;99.90;;;;;;5002026;28;20543;-79
2020/12/30 03:56:03;;;;;;;6.40;4.80;;;6.90;99.90;;;;;;4981997;28;20444;-79
2020/12/30 03:58:48;;;;;;;6.40;5.00;;;7.00;99.90;;;;;;4996588;28;20465;-80
2020/12/30 04:01:35;;;;;;;5.60;5.07;;;6.90;99.90;;;;;;5010650;28;20442;-77
2020/12/30 04:04:48;;;;;;;4.97;4.07;;;6.50;99.90;;;;;;5003967;28;20489;-79
2020/12/30 04:08:04;;;;;;;5.20;4.33;;;6.60;99.90;;;;;;5012003;28;20453;-80
2020/12/30 04:11:00;;;;;;;5.20;4.63;;;7.00;99.90;;;;;;4987599;28;20450;-80
2020/12/30 04:14:07;;;;;;;4.60;3.97;;;7.00;99.90;;;;;;4971774;28;20439;-81
2020/12/30 04:16:58;;;;;;;5.43;4.60;;;6.90;99.90;;;;;;5001511;28;20460;-80
2020/12/30 04:19:58;;;;;;;5.93;4.23;;;6.90;99.90;;;;;;4998611;28;20467;-79
2020/12/30 04:22:52;;;;;;;4.80;3.73;;;6.70;99.90;;;;;;4993016;28;20470;-80
2020/12/30 04:25:22;;;;;;;5.10;3.87;;;6.40;99.90;;;;;;4978632;28;20465;-80
2020/12/30 04:28:17;;;;;;;4.53;4.03;;;6.20;99.90;;;;;;4976514;28;20880;-80
2020/12/30 04:30:58;;;;;;;4.07;3.67;;;6.20;99.90;;;;;;4987781;28;20466;-80
2020/12/30 04:33:35;;;;;;;4.37;4.00;;;6.50;99.90;;;;;;4981345;28;20446;-79
2020/12/30 04:36:26;;;;;;;5.17;4.67;;;6.90;99.90;;;;;;4995912;28;20543;-80
2020/12/30 04:39:10;;;;;;;5.70;4.73;;;7.00;99.90;;;;;;4978012;28;20459;-81
2020/12/30 04:42:11;;;;;;;7.57;5.27;;;7.00;99.90;;;;;;4995667;28;20475;-80
2020/12/30 04:45:33;;;;;;;5.23;3.90;;;6.90;99.90;;;;;;4997080;28;20483;-81
2020/12/30 04:48:30;;;;;;;6.90;4.37;;;6.80;99.90;;;;;;4992612;28;20459;-80
2020/12/30 04:51:18;;;;;;;6.27;4.47;;;6.80;99.90;;;;;;4996591;28;20451;-79
2020/12/30 04:54:10;;;;;;;5.30;4.73;;;6.60;99.90;;;;;;4993884;28;20502;-79
2020/12/30 04:57:13;;;;;;;6.87;4.80;;;6.60;99.90;;;;;;4995200;28;20455;-80
2020/12/30 05:00:15;;;;;;;5.33;4.63;;;6.50;99.90;;;;;;4981749;28;20566;-78
2020/12/30 05:06:23;;;;;;;10.00;6.20;;;6.50;99.90;;;;;;4987583;28;20462;-80
2020/12/30 05:09:20;;;;;;;5.63;4.60;;;6.50;99.90;;;;;;4996347;28;20450;-80
2020/12/30 05:12:19;;;;;;;4.80;4.33;;;6.30;99.90;;;;;;4959322;28;20554;-78
2020/12/30 05:18:51;;;;;;;5.00;4.20;;;6.10;99.90;;;;;;4906967;29;20517;-79
2020/12/30 05:21:38;;;;;;;5.70;4.57;;;6.30;99.90;;;;;;4914670;29;20455;-79
2020/12/30 05:24:29;;;;;;;6.17;4.27;;;6.60;99.90;;;;;;4864058;29;20463;-81
2020/12/30 05:27:13;;;;;;;5.67;4.77;;;6.70;99.90;;;;;;4874825;29;20464;-81
2020/12/30 05:30:20;;;;;;;8.10;5.10;;;6.70;99.90;;;;;;4869346;29;20448;-78
2020/12/30 05:33:41;;;;;;;6.17;4.37;;;6.70;99.90;;;;;;4874349;29;20480;-79
2020/12/30 05:36:44;;;;;;;8.80;6.00;;;6.60;99.90;;;;;;4838331;29;20443;-82
2020/12/30 05:43:37;;;;;;;7.17;5.37;;;6.60;99.90;;;;;;4833040;29;20541;-80
2020/12/30 05:46:49;;;;;;;6.10;5.33;;;6.60;99.90;;;;;;4810529;29;20481;-78
2020/12/30 05:50:03;;;;;;;;;;;;;;;;;;;;;
2020/12/30 05:52:57;;;;;;;5.83;5.23;;;6.60;99.90;;;;;;4868684;29;20456;-80
2020/12/30 05:56:04;;;;;;;7.40;5.70;;;6.60;99.90;;;;;;4908032;29;20442;-79
2020/12/30 05:59:08;;;;;;;6.57;5.80;;;6.60;99.90;;;;;;4906778;29;20506;-80
2020/12/30 06:02:59;;;;;;;8.23;6.43;;;6.60;99.90;;;;;;4898688;29;20500;-79
2020/12/30 06:05:49;;;;;;;7.03;5.40;;;6.40;99.90;;;;;;4909100;29;20800;-80
2020/12/30 06:08:29;;;;;;;5.97;4.70;;;6.40;99.90;;;;;;4929329;29;20470;-80
2020/12/30 06:11:54;;;;;;;7.90;5.40;;;6.30;99.90;;;;;;4921634;29;20447;-77
2020/12/30 06:15:01;;;;;;;6.20;5.17;;;6.20;99.90;;;;;;4900561;29;20454;-80
2020/12/30 06:18:11;;;;;;;6.90;5.50;;;6.20;99.90;;;;;;4918737;29;21054;-79
2020/12/30 06:21:05;;;;;;;7.53;5.73;;;6.20;99.90;;;;;;4919591;29;20511;-78
2020/12/30 06:24:04;;;;;;;7.87;5.17;;;6.30;99.90;;;;;;4929156;29;20431;-79
2020/12/30 06:26:44;;;;;;;8.10;6.27;;;6.30;99.90;;;;;;4913012;29;20490;-78
2020/12/30 06:29:40;;;;;;;5.90;5.10;;;6.20;99.90;;;;;;4928323;29;20451;-79
2020/12/30 06:32:52;;;;;;;8.33;5.50;;;6.10;99.90;;;;;;4931864;28;20529;-80
2020/12/30 06:35:43;;;;;;;10.00;7.20;;;6.10;99.90;;;;;;4984045;28;20471;-79
2020/12/30 06:38:30;;;;;;;6.30;5.20;;;6.00;99.90;;;;;;4980694;28;20431;-80
2020/12/30 06:41:13;;;;;;;7.90;6.37;;;6.10;99.90;;;;;;4979372;28;20619;-79
2020/12/30 06:43:47;;;;;;;7.67;6.33;;;6.10;99.90;;;;;;4997457;28;20959;-79
2020/12/30 06:46:28;;;;;;;7.53;6.17;;;6.10;99.90;;;;;;4981590;28;20505;-80
2020/12/30 06:49:16;;;;;;;;;;;;;;;;;;;;;
2020/12/30 06:51:52;;;;;;;8.63;7.20;;;5.80;99.90;;;;;;4999560;28;20566;-79
2020/12/30 06:55:03;;;;;;;6.50;5.50;;;5.90;99.90;;;;;;4993761;28;20459;-80
2020/12/30 06:57:42;;;;;;;9.50;6.40;;;5.90;99.90;;;;;;4991447;28;20463;-79
2020/12/30 07:01:02;;;;;;;9.97;6.23;;;5.90;99.90;;;;;;4980524;28;20479;-80
2020/12/30 07:03:49;;;;;;;8.90;6.63;;;5.90;99.90;;;;;;4973393;28;20452;-80
2020/12/30 07:06:55;;;;;;;;;;;;;;;;;;;;;
2020/12/30 07:13:53;;;;;;;7.00;6.00;;;5.70;99.90;;;;;;4927715;29;20553;-79
2020/12/30 07:16:55;;;;;;;7.77;6.93;;;5.90;99.90;;;;;;4924530;29;20478;-80
2020/12/30 07:19:50;;;;;;;8.77;6.37;;;5.80;99.90;;;;;;4925661;29;20477;-80
2020/12/30 07:22:39;;;;;;;12.30;7.47;;;5.90;99.90;;;;;;4934946;29;20489;-80
2020/12/30 07:25:32;;;;;;;12.80;7.97;;;5.90;99.90;;;;;;4960300;28;20460;-79
2020/12/30 07:28:04;;;;;;;10.80;7.43;;;5.90;99.90;;;;;;4983295;28;22280;-80
2020/12/30 07:30:59;;;;;;;10.47;7.50;;;5.90;99.90;;;;;;4983800;28;20453;-81
2020/12/30 07:33:39;;;;;;;12.30;7.63;;;5.80;99.90;;;;;;4983953;28;20507;-80
2020/12/30 07:36:35;;;;;;;9.00;6.97;;;5.90;99.90;;;;;;4969178;28;20518;-80
2020/12/30 07:39:42;;;;;;;9.17;7.50;;;6.10;99.90;;;;;;4992962;28;20472;-80
2020/12/30 07:42:29;;;;;;;11.10;7.80;;;6.10;99.90;;;;;;4995029;28;20471;-80
2020/12/30 07:45:00;;;;;;;9.40;7.37;;;6.10;99.90;;;;;;5000328;28;20493;-81
2020/12/30 07:48:06;;;;;;;11.67;7.63;;;6.10;99.90;;;;;;4981620;28;20539;-79
2020/12/30 07:51:04;;;;;;;10.73;7.47;;;6.00;99.90;;;;;;4978929;28;20482;-80
2020/12/30 07:53:52;;;;;;;11.97;6.40;;;5.90;99.90;;;;;;4995027;28;20461;-80
2020/12/30 07:59:52;;;;;;;9.10;7.57;;;6.40;99.90;;;;;;5000077;28;20483;-80
2020/12/30 08:02:29;;;;;;;8.83;5.97;;;6.50;99.90;;;;;;4999014;28;20491;-77
2020/12/30 08:05:11;;;;;;;10.93;7.90;;;6.40;99.90;;;;;;4989151;28;20576;-77
2020/12/30 08:07:43;;;;;;;10.80;6.87;;;6.40;99.90;;;;;;4986719;28;20870;-78
2020/12/30 08:11:04;;;;;;;9.33;7.60;;;6.40;99.90;;;;;;4902785;29;20440;-79
2020/12/30 08:13:57;;;;;;;9.63;7.10;;;6.30;99.90;;;;;;4897864;29;20918;-79
2020/12/30 08:16:52;;;;;;;12.40;7.60;;;6.30;99.90;;;;;;4901714;29;20844;-80
2020/12/30 08:19:52;;;;;;;9.23;7.10;;;6.30;99.90;;;;;;4895713;29;20456;-80
2020/12/30 08:22:58;;;;;;;9.37;7.03;;;6.30;99.90;;;;;;4906316;29;20523;-78
2020/12/30 08:26:38;;;;;;;10.40;7.17;;;6.40;99.90;;;;;;4907261;29;20540;-79
2020/12/30 08:30:06;;;;;;;;;;;;;;;;;;;;;
2020/12/30 08:33:08;;;;;;;11.73;7.60;;;6.20;99.90;;;;;;4882367;29;20586;-81
2020/12/30 08:36:27;;;;;;;10.43;7.17;;;6.30;99.90;;;;;;4899134;29;20472;-81
2020/12/30 08:39:13;;;;;;;9.07;7.73;;;6.20;99.90;;;;;;4869717;29;20491;-80
2020/12/30 08:45:56;;;;;;;9.13;7.10;;;6.50;99.90;;;;;;4902014;29;20439;-80
2020/12/30 08:48:54;;;;;;;9.43;7.03;;;6.50;99.90;;;;;;4988775;28;20461;-81
2020/12/30 08:51:36;;;;;;;10.47;6.07;;;6.50;99.90;;;;;;4974473;28;20471;-80
2020/12/30 08:54:52;;;;;;;9.67;6.90;;;6.60;99.90;;;;;;4982449;28;20447;-78
2020/12/30 09:01:44;;;;;;;9.77;6.70;;;6.60;99.90;;;;;;4992530;28;21041;-80
2020/12/30 09:04:36;;;;;;;8.37;6.40;;;6.70;99.90;;;;;;4985678;28;20517;-79
2020/12/30 09:08:16;;;;;;;8.10;5.83;;;6.70;99.90;;;;;;4988606;28;20840;-79
2020/12/30 09:11:17;;;;;;;8.97;6.57;;;6.80;99.90;;;;;;4929715;28;21047;-80
2020/12/30 09:14:25;;;;;;;7.03;5.53;;;6.80;99.90;;;;;;4981493;28;20459;-80
2020/12/30 09:17:11;;;;;;;7.43;6.63;;;6.70;99.90;;;;;;4989788;28;21043;-78
2020/12/30 09:20:22;;;;;;;7.47;5.70;;;6.70;99.90;;;;;;4979913;28;20482;-81
2020/12/30 09:23:37;;;;;;;8.03;5.97;;;6.60;99.90;;;;;;4988807;28;20474;-80
2020/12/30 09:29:29;;;;;;;6.80;5.50;;;6.70;99.90;;;;;;4999137;28;20519;-80
2020/12/30 09:32:01;;;;;;;9.07;5.80;;;6.80;99.90;;;;;;4984553;28;20475;-78
2020/12/30 09:35:37;;;;;;;5.73;4.67;;;6.70;99.90;;;;;;5002218;28;20418;-80
2020/12/30 09:38:54;;;;;;;9.83;5.53;;;6.60;99.90;;;;;;4974464;28;20466;-79
2020/12/30 09:41:45;;;;;;;7.07;5.00;;;6.60;99.90;;;;;;4979559;28;20538;-81
2020/12/30 09:44:22;;;;;;;6.73;4.73;;;6.70;99.90;;;;;;4981368;28;20451;-79
2020/12/30 09:47:37;;;;;;;5.80;4.50;;;6.60;99.90;;;;;;4985511;28;20451;-79
2020/12/30 09:50:29;;;;;;;9.57;4.80;;;6.90;99.90;;;;;;4983580;28;20455;-80
2020/12/30 09:53:32;;;;;;;7.53;6.20;;;7.10;99.90;;;;;;4986059;28;20486;-82
2020/12/30 09:56:30;;;;;;;9.57;6.73;;;7.10;99.90;;;;;;4978015;28;20829;-80
2020/12/30 09:59:20;;;;;;;9.20;6.73;;;7.20;99.90;;;;;;4980653;28;20466;-82
2020/12/30 10:01:50;;;;;;;8.10;6.20;;;7.10;99.90;;;;;;4981303;28;20463;-81
2020/12/30 10:04:21;;;;;;;10.90;6.20;;;7.20;99.90;;;;;;4983182;28;20458;-78
2020/12/30 10:07:07;;;;;;;7.10;6.10;;;7.20;99.90;;;;;;4986477;28;20447;-81
2020/12/30 10:10:29;;;;;;;8.67;6.43;;;7.10;99.90;;;;;;4997064;28;20478;-80
2020/12/30 10:13:21;;;;;;;7.13;5.50;;;7.10;99.90;;;;;;4998326;28;20498;-81
2020/12/30 10:16:08;;;;;;;7.93;5.40;;;6.80;99.90;;;;;;4981721;28;20448;-82
2020/12/30 10:19:17;;;;;;;9.77;5.17;;;6.80;99.90;;;;;;4977397;28;20523;-80
2020/12/30 10:22:56;;;;;;;7.87;5.80;;;7.30;99.90;;;;;;4971609;28;20467;-80
2020/12/30 10:25:47;;;;;;;7.67;5.43;;;7.30;99.90;;;;;;4998149;28;20522;-80
2020/12/30 10:28:25;;;;;;;8.20;6.57;;;7.40;99.90;;;;;;4985343;28;20439;-79
2020/12/30 10:31:59;;;;;;;7.47;6.10;;;7.30;99.90;;;;;;5007763;28;20478;-79
2020/12/30 10:34:48;;;;;;;8.83;5.93;;;7.40;99.90;;;;;;4297338;28;10000723;-79
2020/12/30 10:37:17;;;;;;;8.53;5.53;;;7.40;99.90;;;;;;4974269;28;20457;-79
2020/12/30 10:39:45;;;;;;;10.30;5.60;;;7.50;99.90;;;;;;4976221;28;20479;-78
2020/12/30 10:42:12;;;;;;;8.27;5.43;;;7.40;99.90;;;;;;4982653;28;20496;-80
2020/12/30 10:44:39;;;;;;;5.30;4.80;;;7.50;99.90;;;;;;4982253;28;20508;-80
2020/12/30 10:47:06;;;;;;;7.20;5.40;;;7.50;99.90;;;;;;4987318;28;20559;-81
2020/12/30 10:49:33;;;;;;;6.60;5.23;;;7.50;99.90;;;;;;4977791;28;20458;-79
2020/12/30 10:51:59;;;;;;;6.73;5.80;;;7.60;99.90;;;;;;4995913;28;21048;-80
2020/12/30 10:54:26;;;;;;;8.10;5.83;;;7.60;99.90;;;;;;4999090;28;20537;-80
2020/12/30 10:56:54;;;;;;;9.47;6.60;;;7.70;99.90;;;;;;5000249;28;20965;-80
2020/12/30 10:59:21;;;;;;;9.03;6.30;;;7.70;99.90;;;;;;4997047;28;20589;-82
2020/12/30 11:01:52;;;;;;;8.20;6.57;;;7.70;99.90;;;;;;4982470;28;20741;-80
2020/12/30 11:04:20;;;;;;;7.30;5.80;;;7.60;99.90;;;;;;4982427;28;20870;-80
2020/12/30 11:06:55;;;;;;;7.17;5.90;;;7.70;99.90;;;;;;5000741;28;20486;-79
2020/12/30 11:09:22;;;;;;;8.50;5.80;;;7.60;99.90;;;;;;4988236;28;20460;-79
2020/12/30 11:11:49;;;;;;;7.23;6.00;;;7.60;99.90;;;;;;4983070;28;20823;-79
2020/12/30 11:14:15;;;;;;;6.93;5.80;;;7.50;99.90;;;;;;4981848;28;20458;-80
2020/12/30 11:16:48;;;;;;;7.00;5.70;;;7.50;99.90;;;;;;4979779;28;20923;-80
2020/12/30 11:19:14;;;;;;;6.07;5.33;;;7.80;99.90;;;;;;5006653;28;20475;-79
2020/12/30 11:21:41;;;;;;;8.57;5.73;;;7.60;99.90;;;;;;4980197;28;20999;-79
2020/12/30 11:24:10;;;;;;;8.10;6.23;;;7.60;99.90;;;;;;4988062;28;20447;-80
2020/12/30 11:26:43;;;;;;;8.23;5.60;;;7.50;99.90;;;;;;4986013;28;20494;-79
2020/12/30 11:29:10;;;;;;;7.03;5.50;;;7.40;99.90;;;;;;4990069;28;20459;-79
2020/12/30 11:31:38;;;;;;;6.70;4.97;;;7.40;99.90;;;;;;4984246;28;20471;-78
2020/12/30 11:34:05;;;;;;;11.30;6.63;;;7.40;99.90;;;;;;4980943;28;20462;-80
2020/12/30 11:36:42;;;;;;;7.50;6.00;;;7.60;99.90;;;;;;4986526;28;20459;-77
2020/12/30 11:39:09;;;;;;;7.67;5.67;;;7.50;99.90;;;;;;4996039;28;20466;-79
2020/12/30 11:41:40;;;;;;;7.83;6.10;;;7.40;99.90;;;;;;4986702;28;20490;-80
2020/12/30 11:44:07;;;;;;;6.90;5.60;;;7.40;99.90;;;;;;4988025;28;20454;-80
2020/12/30 11:46:57;;;;;;;7.60;5.93;;;7.80;99.90;;;;;;4995655;28;20482;-79
2020/12/30 11:49:27;;;;;;;8.60;6.17;;;8.20;99.90;;;;;;4993346;28;20436;-77
2020/12/30 11:51:54;;;;;;;7.30;5.80;;;8.00;99.90;;;;;;4986592;28;20479;-82
2020/12/30 11:54:21;;;;;;;7.83;6.33;;;7.90;99.90;;;;;;4986259;28;20476;-80
2020/12/30 11:56:48;;;;;;;8.53;6.33;;;7.70;99.90;;;;;;4986918;28;20949;-78
2020/12/30 11:59:15;;;;;;;8.00;6.20;;;7.60;99.90;;;;;;4998985;28;20457;-78
2020/12/30 12:01:42;;;;;;;8.10;6.23;;;7.60;99.90;;;;;;4988553;28;20854;-79
2020/12/30 12:04:08;;;;;;;9.03;7.30;;;7.60;99.90;;;;;;4985853;28;20545;-76
2020/12/30 12:06:35;;;;;;;8.17;5.73;;;7.60;99.90;;;;;;5004784;28;20499;-78
2020/12/30 12:09:02;;;;;;;7.53;5.70;;;7.60;99.90;;;;;;4990571;28;20493;-81
2020/12/30 12:11:29;;;;;;;9.03;6.67;;;7.60;99.90;;;;;;4989789;28;20739;-76
2020/12/30 12:13:56;;;;;;;8.20;6.13;;;7.60;99.90;;;;;;4999247;28;20462;-77
2020/12/30 12:16:23;;;;;;;8.73;5.87;;;7.80;99.90;;;;;;4997062;28;20490;-77
2020/12/30 12:18:50;;;;;;;6.13;4.90;;;7.70;99.90;;;;;;4992171;28;20626;-78
2020/12/30 12:21:16;;;;;;;10.67;5.80;;;7.70;99.90;;;;;;4984365;28;20492;-79
2020/12/30 12:23:43;;;;;;;6.80;5.03;;;7.60;99.90;;;;;;4642012;28;10000490;-80
2020/12/30 12:26:10;;;;;;;7.83;5.67;;;7.90;99.90;;;;;;4991200;28;21458;-77
2020/12/30 12:28:57;;;;;;;8.57;6.30;;;7.80;99.90;;;;;;4990517;28;21021;-77
2020/12/30 12:31:23;;;;;;;7.87;5.97;;;7.80;99.90;;;;;;5007777;28;20549;-78
2020/12/30 12:33:50;;;;;;;6.33;5.60;;;7.70;99.90;;;;;;4987558;28;20745;-80
2020/12/30 12:36:19;;;;;;;8.37;5.90;;;7.70;99.90;;;;;;4999208;28;20462;-79
2020/12/30 12:38:47;;;;;;;12.13;6.87;;;7.80;99.90;;;;;;4979277;28;20898;-80
2020/12/30 12:41:15;;;;;;;8.37;5.40;;;7.70;99.90;;;;;;4995346;28;20486;-78
2020/12/30 12:43:42;;;;;;;6.70;5.30;;;7.70;99.90;;;;;;4996375;28;20851;-80
2020/12/30 12:46:13;;;;;;;5.83;5.13;;;7.70;99.90;;;;;;4978321;28;20459;-80
2020/12/30 12:48:40;;;;;;;5.70;5.10;;;7.70;99.90;;;;;;4994343;28;21117;-81
2020/12/30 12:51:10;;;;;;;6.67;5.70;;;7.80;99.90;;;;;;4979501;28;21207;-79
2020/12/30 12:53:37;;;;;;;7.67;5.23;;;7.70;99.90;;;;;;4977965;28;20463;-81
2020/12/30 12:56:04;;;;;;;6.97;5.40;;;7.60;99.90;;;;;;4979021;28;20535;-78
2020/12/30 12:58:33;;;;;;;7.70;5.90;;;7.60;99.90;;;;;;4982702;28;20508;-81
2020/12/30 13:00:59;;;;;;;7.17;5.70;;;7.60;99.90;;;;;;5000795;28;20550;-78
2020/12/30 13:03:26;;;;;;;8.97;5.53;;;7.60;99.90;;;;;;4989800;28;20735;-79
2020/12/30 13:05:52;;;;;;;6.07;5.40;;;7.60;99.90;;;;;;4976841;28;20545;-80
2020/12/30 13:08:19;;;;;;;6.20;4.70;;;7.70;99.90;;;;;;4976745;28;20586;-81
2020/12/30 13:10:46;;;;;;;7.03;6.00;;;7.90;99.90;;;;;;4980797;28;20466;-80
2020/12/30 13:13:12;;;;;;;6.97;5.60;;;7.80;99.90;;;;;;4980706;28;20482;-80
2020/12/30 13:15:39;;;;;;;8.13;5.73;;;7.90;99.90;;;;;;4984965;28;20793;-81
2020/12/30 13:18:05;;;;;;;9.87;6.60;;;7.80;99.90;;;;;;4983684;28;20461;-82
2020/12/30 13:20:32;;;;;;;8.70;6.20;;;7.60;99.90;;;;;;4997006;28;20486;-80
2020/12/30 13:22:59;;;;;;;8.43;5.87;;;7.60;99.90;;;;;;4997960;28;20504;-80
2020/12/30 13:25:25;;;;;;;8.30;6.80;;;7.50;99.90;;;;;;4977232;28;20535;-82
2020/12/30 13:27:52;;;;;;;10.70;7.30;;;7.50;99.90;;;;;;4980725;28;20481;-78
2020/12/30 13:30:18;;;;;;;11.97;7.57;;;7.50;99.90;;;;;;4977194;28;20470;-78
2020/12/30 13:32:45;;;;;;;8.60;7.03;;;7.50;99.90;;;;;;4975692;28;20501;-77
2020/12/30 13:35:11;;;;;;;8.07;6.47;;;7.70;99.90;;;;;;4995304;28;20533;-78
2020/12/30 13:37:37;;;;;;;10.73;7.03;;;7.70;99.90;;;;;;4985243;28;20465;-80
2020/12/30 13:40:04;;;;;;;7.20;6.00;;;7.60;99.90;;;;;;4994695;28;20481;-78
2020/12/30 13:42:30;;;;;;;7.63;5.60;;;7.80;99.90;;;;;;4999049;28;20481;-80
2020/12/30 13:44:56;;;;;;;7.33;6.17;;;7.80;99.90;;;;;;4995919;28;20805;-81
2020/12/30 13:47:23;;;;;;;7.10;6.40;;;7.70;99.90;;;;;;4985014;28;20489;-78
2020/12/30 13:49:50;;;;;;;9.97;6.40;;;7.80;99.90;;;;;;4982857;28;20562;-78
2020/12/30 13:52:17;;;;;;;7.70;6.10;;;7.60;99.90;;;;;;4981967;28;21609;-80
2020/12/30 13:54:44;;;;;;;7.03;6.03;;;7.60;99.90;;;;;;4979886;28;20450;-78
2020/12/30 13:57:11;;;;;;;7.47;6.70;;;7.70;99.90;;;;;;4978052;28;20490;-79
2020/12/30 13:59:38;;;;;;;6.80;6.10;;;7.50;99.90;;;;;;4988659;28;20486;-79
2020/12/30 14:02:05;;;;;;;9.20;7.70;;;7.50;99.90;;;;;;4998681;28;20470;-79
2020/12/30 14:04:31;;;;;;;6.87;5.93;;;7.50;99.90;;;;;;5000544;28;20470;-79
2020/12/30 14:06:59;;;;;;;9.27;7.73;;;7.50;99.90;;;;;;5000491;28;20454;-78
2020/12/30 14:09:27;;;;;;;7.20;5.63;;;7.50;99.90;;;;;;4999783;28;20817;-77
2020/12/30 14:11:54;;;;;;;7.90;6.27;;;7.40;99.90;;;;;;4998858;28;20470;-78
2020/12/30 14:14:20;;;;;;;8.20;7.27;;;7.30;99.90;;;;;;4999774;28;20531;-79
2020/12/30 14:16:47;;;;;;;8.20;7.13;;;7.20;99.90;;;;;;5017608;28;20669;-78
2020/12/30 14:19:13;;;;;;;7.60;6.50;;;7.20;99.90;;;;;;5000617;28;20454;-78
2020/12/30 14:24:15;;;;;;;9.57;8.20;;;7.20;99.90;;;;;;5122393;22;20497;-80
2020/12/30 14:26:42;;;;;;;12.57;9.57;;;7.20;99.90;;;;;;5030676;28;20451;-79
2020/12/30 14:29:08;;;;;;;11.07;8.17;;;7.20;99.90;;;;;;5025521;28;20442;-78
2020/12/30 14:31:34;;;;;;;9.87;8.50;;;7.20;99.90;;;;;;5032412;28;20493;-79
2020/12/30 14:34:00;;;;;;;19.50;10.37;;;7.20;99.90;;;;;;5036243;28;20465;-78
2020/12/30 14:36:27;;;;;;;11.00;9.63;;;7.10;99.90;;;;;;5035647;28;20469;-79
2020/12/30 14:38:54;;;;;;;15.20;10.53;;;7.20;99.90;;;;;;5035802;28;20525;-78
2020/12/30 14:41:20;;;;;;;14.70;9.83;;;7.10;99.90;;;;;;5034100;28;20483;-78
2020/12/30 14:43:46;;;;;;;11.60;8.17;;;7.10;99.90;;;;;;5032469;28;20460;-80
2020/12/30 14:46:13;;;;;;;14.00;9.30;;;7.10;99.90;;;;;;5035589;28;20990;-79
2020/12/30 14:48:39;;;;;;;10.67;8.87;;;7.10;99.90;;;;;;5034695;28;20466;-78
2020/12/30 14:51:08;;;;;;;10.57;8.50;;;7.10;99.90;;;;;;5039915;28;20493;-80
2020/12/30 14:53:36;;;;;;;12.83;9.40;;;7.10;99.90;;;;;;5032389;28;20469;-78
2020/12/30 14:56:08;;;;;;;9.60;8.23;;;7.10;99.90;;;;;;5036251;28;20429;-79
2020/12/30 14:58:34;;;;;;;11.50;8.73;;;7.10;99.90;;;;;;5033819;28;20983;-78
2020/12/30 15:01:00;;;;;;;14.70;8.80;;;7.10;99.90;;;;;;5015607;28;20481;-78
2020/12/30 15:03:26;;;;;;;9.43;8.43;;;7.20;99.90;;;;;;5032472;28;20433;-78
2020/12/30 15:05:52;;;;;;;10.23;9.07;;;7.20;99.90;;;;;;5031084;28;20245;-78
2020/12/30 15:08:18;;;;;;;12.43;8.60;;;7.20;99.90;;;;;;5034309;28;20468;-78
2020/12/30 15:10:44;;;;;;;11.00;8.80;;;7.20;99.90;;;;;;5020239;28;21005;-78
2020/12/30 15:13:10;;;;;;;11.97;9.07;;;7.10;99.90;;;;;;5039430;28;20479;-79
2020/12/30 15:15:36;;;;;;;14.80;8.80;;;7.20;99.90;;;;;;5019035;28;20565;-78
2020/12/30 15:18:03;;;;;;;12.10;9.00;;;7.20;99.90;;;;;;5017567;28;20787;-79
2020/12/30 15:20:29;;;;;;;13.23;9.43;;;7.30;99.90;;;;;;5034445;28;21061;-79
2020/12/30 15:22:55;;;;;;;13.60;9.10;;;7.20;99.90;;;;;;5030376;28;20494;-79